This is the latest recevied weather packets stored in our database for station/object HS1AXC-1. If no packets are shown the sender has not sent any weather packets the latest 10 day(s).
| Time | Temp. | Humidity | Pressure | Rain* | Wind** | Luminosity | Snow |
|---|---|---|---|---|---|---|---|
| 1788688342 | 35° C | 67% | 1006 hPa | - | - | 0 W/m² | - |
| 1788687720 | 35.56° C | 65% | 1006 hPa | - | - | 0 W/m² | - |
| 1788687098 | 36.11° C | 64% | 1006 hPa | - | - | 1 W/m² | - |
| 1788686475 | 36.11° C | 65% | 1006 hPa | - | - | 1 W/m² | - |
| 1788685853 | 35.56° C | 67% | 1006 hPa | - | - | 1 W/m² | - |
| 1788685247 | 35.56° C | 65% | 1006 hPa | - | - | 0 W/m² | - |
| 1788684609 | 36.11° C | 65% | 1006 hPa | - | - | 0 W/m² | - |
| 1788683987 | 35.56° C | 66% | 1006 hPa | - | - | 1 W/m² | - |
| 1788683365 | 36.67° C | 63% | 1006 hPa | - | - | 0 W/m² | - |
| 1788682743 | 36.11° C | 63% | 1006 hPa | - | - | 0 W/m² | - |
| 1788682121 | 36.11° C | 59% | 1006 hPa | - | - | 0 W/m² | - |
| 1788681501 | 37.78° C | 56% | 1006 hPa | - | - | 1 W/m² | - |
| 1788680879 | 37.78° C | 53% | 1006 hPa | - | - | 0 W/m² | - |
| 1788680257 | 37.22° C | 53% | 1006 hPa | - | - | 0 W/m² | - |
| 1788679635 | 37.78° C | 53% | 1006 hPa | - | - | 0 W/m² | - |
| 1788679012 | 38.33° C | 47% | 1006 hPa | - | - | 1 W/m² | - |
| 1788678390 | 38.33° C | 47% | 1006 hPa | - | - | 1 W/m² | - |
| 1788677768 | 38.89° C | 46% | 1007 hPa | - | - | 1 W/m² | - |
| 1788677146 | 39.44° C | 46% | 1007 hPa | - | - | 3 W/m² | - |
| 1788676524 | 39.44° C | 46% | 1007 hPa | - | - | 3 W/m² | - |
| 1788675902 | 38.89° C | 46% | 1007 hPa | - | - | 4 W/m² | - |
| 1788675280 | 38.89° C | 46% | 1007 hPa | - | - | 4 W/m² | - |
| 1788674658 | 38.33° C | 49% | 1008 hPa | - | - | 4 W/m² | - |
| 1788674036 | 37.78° C | 48% | 1008 hPa | - | - | 1 W/m² | - |
| 1788673414 | 38.33° C | 47% | 1008 hPa | - | - | 2 W/m² | - |
* Rain since midnight (hover to see other rain measurements)
** Current wind speed in m/s (hover to see current wind gust speed)